< < Back
Terminal Aerodrome Forecast


Current Version              Previous Versions:   1  2  3  4  5  6  7  8  9  

Terminal Aerodrome Forecast

599
FTUS42 KFFC 010537
TAFATL
TAF
KATL 010537Z 0106/0212 19006KT P6SM BKN018
     FM010800 22004KT 5SM BR SCT008 BKN012
     FM011300 27005KT P6SM FEW040
     FM011800 28007KT P6SM SCT050
     FM020000 28005KT P6SM FEW250
     FM020500 26003KT P6SM FEW250=



Latest METAR

003
SAUS70 KWBC 010900 RRQ
MTRATL
METAR KATL 010852Z 21008KT 10SM OVC008 24/22 A2999 RMK AO2 SLP143 CIG
007V010 BINOVC T02390217 55005


USA.gov is the U.S. government's official web portal to all federal, state and local government web resources and services.